createdAt,value
2017-04-12T00:00:30.708Z,20.35
2017-04-12T00:01:02.956Z,20.42
2017-04-12T00:01:35.197Z,20.42
2017-04-12T00:02:07.441Z,20.49
2017-04-12T00:02:39.741Z,20.38
2017-04-12T00:03:12.048Z,20.48
2017-04-12T00:03:44.348Z,20.42
2017-04-12T00:04:16.663Z,20.46
2017-04-12T00:04:48.966Z,20.38
2017-04-12T00:05:21.296Z,20.38
2017-04-12T00:05:53.599Z,20.4
2017-04-12T00:06:25.900Z,20.4
2017-04-12T00:06:58.207Z,20.41
2017-04-12T00:07:30.511Z,20.46
2017-04-12T00:08:02.812Z,20.38
2017-04-12T00:08:35.108Z,20.35
2017-04-12T00:09:07.421Z,20.41
2017-04-12T00:09:39.742Z,20.4
2017-04-12T00:10:12.036Z,20.46
2017-04-12T00:10:44.335Z,20.48
2017-04-12T00:11:16.632Z,20.38
2017-04-12T00:11:48.977Z,20.48
2017-04-12T00:12:21.280Z,20.37
2017-04-12T00:12:53.537Z,20.38
2017-04-12T00:13:25.789Z,20.41
2017-04-12T00:13:58.040Z,20.38
2017-04-12T00:14:30.299Z,20.32
2017-04-12T00:15:03.578Z,20.37
2017-04-12T00:15:35.832Z,20.35
2017-04-12T00:16:08.088Z,20.37
2017-04-12T00:16:40.351Z,20.48
2017-04-12T00:17:13.437Z,20.37
2017-04-12T00:17:45.683Z,20.46
2017-04-12T00:18:18.927Z,20.37
2017-04-12T00:18:51.181Z,20.37
2017-04-12T00:19:24.037Z,20.38
2017-04-12T00:19:56.293Z,20.35
2017-04-12T00:20:28.563Z,20.41
2017-04-12T00:21:00.819Z,20.46
2017-04-12T00:21:34.037Z,20.51
2017-04-12T00:22:06.932Z,20.37
2017-04-12T00:22:39.191Z,20.38
2017-04-12T00:23:11.414Z,20.42
2017-04-12T00:23:43.662Z,20.4
2017-04-12T00:24:15.928Z,20.42
2017-04-12T00:24:48.184Z,20.42
2017-04-12T00:25:20.461Z,20.38
2017-04-12T00:25:52.728Z,20.41
2017-04-12T00:26:24.992Z,20.49
2017-04-12T00:26:57.231Z,20.48
2017-04-12T00:27:29.470Z,20.46
2017-04-12T00:28:01.839Z,20.42
2017-04-12T00:28:34.104Z,20.34
2017-04-12T00:29:06.371Z,20.41
2017-04-12T00:29:38.633Z,20.38
2017-04-12T00:30:10.880Z,20.41
2017-04-12T00:30:43.135Z,20.42
2017-04-12T00:31:15.396Z,20.46
2017-04-12T00:31:47.628Z,20.41
2017-04-12T00:32:19.891Z,20.41
2017-04-12T00:32:52.132Z,20.41
2017-04-12T00:33:24.543Z,20.32
2017-04-12T00:33:56.794Z,20.37
2017-04-12T00:34:29.049Z,20.38
2017-04-12T00:35:01.315Z,20.49
2017-04-12T00:35:33.578Z,20.38
2017-04-12T00:36:05.818Z,20.34
2017-04-12T00:36:38.078Z,20.42
2017-04-12T00:37:10.970Z,20.4
2017-04-12T00:37:43.218Z,20.38
2017-04-12T00:38:15.487Z,20.44
2017-04-12T00:38:47.756Z,20.41
2017-04-12T00:39:20.056Z,20.42
2017-04-12T00:39:52.334Z,20.44
2017-04-12T00:40:24.593Z,20.41
2017-04-12T00:40:56.860Z,20.48
2017-04-12T00:41:29.095Z,20.41
2017-04-12T00:42:01.341Z,20.37
2017-04-12T00:42:33.643Z,20.37
2017-04-12T00:43:05.956Z,20.37
2017-04-12T00:43:38.265Z,20.46
2017-04-12T00:44:10.589Z,20.37
2017-04-12T00:44:42.891Z,20.35
2017-04-12T00:45:15.187Z,20.42
2017-04-12T00:45:47.483Z,20.37
2017-04-12T00:46:19.789Z,20.37
2017-04-12T00:46:52.088Z,20.4
2017-04-12T00:47:24.398Z,20.34
2017-04-12T00:47:56.697Z,20.38
2017-04-12T00:48:29.009Z,20.38
2017-04-12T00:49:01.303Z,20.38
2017-04-12T00:49:33.597Z,20.37
2017-04-12T00:50:05.888Z,20.38
2017-04-12T00:50:38.205Z,20.38
2017-04-12T00:51:10.505Z,20.38
2017-04-12T00:51:42.819Z,20.38
2017-04-12T00:52:15.151Z,20.4
2017-04-12T00:52:47.401Z,20.38
2017-04-12T00:53:19.651Z,20.38
2017-04-12T00:53:51.910Z,20.38
2017-04-12T00:54:24.216Z,20.37
2017-04-12T00:54:56.468Z,20.37
2017-04-12T00:55:28.708Z,20.41
2017-04-12T00:56:00.968Z,20.32
2017-04-12T00:56:33.221Z,20.46
2017-04-12T00:57:05.466Z,20.4
2017-04-12T00:57:37.717Z,20.44
2017-04-12T00:58:09.981Z,20.32
2017-04-12T00:58:42.234Z,20.41
2017-04-12T00:59:14.497Z,20.42
2017-04-12T00:59:46.746Z,20.38
2017-04-12T01:00:18.988Z,20.42
2017-04-12T01:00:51.276Z,20.35
2017-04-12T01:01:24.049Z,20.38
2017-04-12T01:01:56.309Z,20.35
2017-04-12T01:02:28.563Z,20.35
2017-04-12T01:03:00.871Z,20.4
2017-04-12T01:03:33.187Z,20.35
2017-04-12T01:04:05.488Z,20.34
2017-04-12T01:04:37.794Z,20.32
2017-04-12T01:05:10.102Z,20.42
2017-04-12T01:05:42.408Z,20.37
2017-04-12T01:06:14.706Z,20.34
2017-04-12T01:06:47.051Z,20.38
2017-04-12T01:07:19.343Z,20.37
2017-04-12T01:07:51.661Z,20.38
2017-04-12T01:08:23.968Z,20.23
2017-04-12T01:08:56.271Z,20.26
2017-04-12T01:09:28.564Z,20.34
2017-04-12T01:10:00.864Z,20.2
2017-04-12T01:10:33.172Z,20.34
2017-04-12T01:11:05.506Z,20.29
2017-04-12T01:11:37.825Z,20.35
2017-04-12T01:12:10.130Z,20.22
2017-04-12T01:12:42.422Z,20.3
2017-04-12T01:13:14.744Z,20.32
2017-04-12T01:13:47.030Z,20.27
2017-04-12T01:14:19.354Z,20.26
2017-04-12T01:14:51.658Z,20.35
2017-04-12T01:15:23.952Z,20.37
2017-04-12T01:15:56.261Z,20.38
2017-04-12T01:16:28.561Z,20.32
2017-04-12T01:17:00.875Z,20.37
2017-04-12T01:17:33.167Z,20.34
2017-04-12T01:18:05.472Z,20.29
2017-04-12T01:18:37.783Z,20.4
2017-04-12T01:19:10.082Z,20.38
2017-04-12T01:19:42.443Z,20.35
2017-04-12T01:20:14.747Z,20.27
2017-04-12T01:20:47.052Z,20.38
2017-04-12T01:21:19.351Z,20.29
2017-04-12T01:21:51.649Z,20.23
2017-04-12T01:22:23.953Z,20.34
2017-04-12T01:22:56.255Z,20.26
2017-04-12T01:23:28.548Z,20.26
2017-04-12T01:24:00.852Z,20.35
2017-04-12T01:24:33.153Z,20.37
2017-04-12T01:25:05.455Z,20.22
2017-04-12T01:25:37.759Z,20.3
2017-04-12T01:26:10.070Z,20.27
2017-04-12T01:26:42.380Z,20.26
2017-04-12T01:27:14.673Z,20.26
2017-04-12T01:27:46.996Z,20.4
2017-04-12T01:28:19.297Z,20.19
2017-04-12T01:28:51.624Z,20.32
2017-04-12T01:29:23.932Z,20.29
2017-04-12T01:29:56.238Z,20.35
2017-04-12T01:30:28.551Z,20.35
2017-04-12T01:31:00.843Z,20.41
2017-04-12T01:31:33.144Z,20.35
2017-04-12T01:32:05.431Z,20.27
2017-04-12T01:32:37.741Z,20.35
2017-04-12T01:33:10.076Z,20.26
2017-04-12T01:33:42.387Z,20.37
2017-04-12T01:34:14.714Z,20.26
2017-04-12T01:34:47.014Z,20.37
2017-04-12T01:35:19.308Z,20.29
2017-04-12T01:35:51.611Z,20.29
2017-04-12T01:36:23.906Z,20.37
2017-04-12T01:36:56.197Z,20.34
2017-04-12T01:37:28.498Z,20.32
2017-04-12T01:38:00.799Z,20.26
2017-04-12T01:38:33.105Z,20.3
2017-04-12T01:39:05.420Z,20.38
2017-04-12T01:39:37.732Z,20.35
2017-04-12T01:40:10.043Z,20.32
2017-04-12T01:40:42.339Z,20.37
2017-04-12T01:41:14.647Z,20.25
2017-04-12T01:41:46.965Z,20.35
2017-04-12T01:42:19.260Z,20.25
2017-04-12T01:42:51.520Z,20.29
2017-04-12T01:43:23.770Z,20.35
2017-04-12T01:43:56.047Z,20.38
2017-04-12T01:44:28.309Z,20.26
2017-04-12T01:45:00.562Z,20.38
2017-04-12T01:45:32.815Z,20.25
2017-04-12T01:46:05.064Z,20.34
2017-04-12T01:46:37.322Z,20.34
2017-04-12T01:47:09.582Z,20.26
2017-04-12T01:47:41.824Z,20.32
2017-04-12T01:48:14.057Z,20.26
2017-04-12T01:48:46.304Z,20.35
2017-04-12T01:49:18.570Z,20.34
2017-04-12T01:49:50.810Z,20.26
2017-04-12T01:50:23.046Z,20.26
2017-04-12T01:50:55.270Z,20.29
2017-04-12T01:51:27.623Z,20.25
2017-04-12T01:51:59.884Z,20.25
2017-04-12T01:52:32.181Z,20.23
2017-04-12T01:53:04.490Z,20.34
2017-04-12T01:53:36.785Z,20.25
2017-04-12T01:54:09.079Z,20.23
2017-04-12T01:54:41.373Z,20.25
2017-04-12T01:55:13.680Z,20.25
2017-04-12T01:55:45.971Z,20.26
2017-04-12T01:56:18.268Z,20.26
2017-04-12T01:56:50.578Z,20.25
2017-04-12T01:57:22.882Z,20.23
2017-04-12T01:57:55.173Z,20.32
2017-04-12T01:58:27.472Z,20.34
2017-04-12T01:58:59.770Z,20.23
2017-04-12T01:59:32.070Z,20.26
2017-04-12T02:00:04.374Z,20.27
2017-04-12T02:00:36.677Z,20.26
2017-04-12T02:01:08.992Z,20.34
2017-04-12T02:01:41.306Z,20.26
2017-04-12T02:02:13.619Z,20.25
2017-04-12T02:02:45.931Z,20.23
2017-04-12T02:03:18.247Z,20.26
2017-04-12T02:03:50.549Z,20.26
2017-04-12T02:04:22.851Z,20.29
2017-04-12T02:04:55.147Z,20.25
2017-04-12T02:05:27.460Z,20.38
2017-04-12T02:05:59.750Z,20.26
2017-04-12T02:06:32.050Z,20.26
2017-04-12T02:07:04.344Z,20.29
2017-04-12T02:07:36.634Z,20.23
2017-04-12T02:08:08.947Z,20.23
2017-04-12T02:08:41.251Z,20.25
2017-04-12T02:09:13.557Z,20.22
2017-04-12T02:09:45.864Z,20.26
2017-04-12T02:10:18.168Z,20.34
2017-04-12T02:10:50.481Z,20.38
2017-04-12T02:11:22.774Z,20.26
2017-04-12T02:11:55.078Z,20.37
2017-04-12T02:12:27.379Z,20.22
2017-04-12T02:12:59.681Z,20.25
2017-04-12T02:13:31.976Z,20.29
2017-04-12T02:14:04.275Z,20.32
2017-04-12T02:14:36.579Z,20.32
2017-04-12T02:15:08.873Z,20.2
2017-04-12T02:15:41.173Z,20.25
2017-04-12T02:16:13.476Z,20.27
2017-04-12T02:16:45.790Z,20.25
2017-04-12T02:17:18.079Z,20.23
2017-04-12T02:17:50.379Z,20.27
2017-04-12T02:18:22.678Z,20.3
2017-04-12T02:18:54.981Z,20.25
2017-04-12T02:19:27.283Z,20.34
2017-04-12T02:19:59.581Z,20.29
2017-04-12T02:20:31.898Z,20.26
2017-04-12T02:21:04.194Z,20.22
2017-04-12T02:21:36.507Z,20.23
2017-04-12T02:22:08.802Z,20.34
2017-04-12T02:22:41.096Z,20.23
2017-04-12T02:23:13.406Z,20.3
2017-04-12T02:23:45.702Z,20.23
2017-04-12T02:24:18.046Z,20.25
2017-04-12T02:24:50.346Z,20.27
2017-04-12T02:25:22.653Z,20.3
2017-04-12T02:25:54.967Z,20.26
2017-04-12T02:26:27.273Z,20.29
2017-04-12T02:26:59.582Z,20.3
2017-04-12T02:27:31.917Z,20.27
2017-04-12T02:28:04.216Z,20.2
2017-04-12T02:28:36.538Z,20.34
2017-04-12T02:29:08.877Z,20.26
2017-04-12T02:29:41.217Z,20.32
2017-04-12T02:30:13.512Z,20.16
2017-04-12T02:30:45.820Z,20.27
2017-04-12T02:31:18.108Z,20.26
2017-04-12T02:31:50.405Z,20.19
2017-04-12T02:32:22.700Z,20.25
2017-04-12T02:32:55.005Z,20.26
2017-04-12T02:33:27.316Z,20.27
2017-04-12T02:33:59.609Z,20.26
2017-04-12T02:34:31.918Z,20.2
2017-04-12T02:35:04.241Z,20.29
2017-04-12T02:35:36.547Z,20.27
2017-04-12T02:36:08.859Z,20.23
2017-04-12T02:36:41.175Z,20.22
2017-04-12T02:37:13.487Z,20.29
2017-04-12T02:37:45.792Z,20.25
2017-04-12T02:38:18.109Z,20.27
2017-04-12T02:38:50.412Z,20.19
2017-04-12T02:39:22.712Z,20.27
2017-04-12T02:39:55.014Z,20.3
2017-04-12T02:40:27.331Z,20.15
2017-04-12T02:40:59.626Z,20.26
2017-04-12T02:41:31.934Z,20.32
2017-04-12T02:42:04.234Z,20.26
2017-04-12T02:42:36.491Z,20.29
2017-04-12T02:43:08.742Z,20.26
2017-04-12T02:43:42.201Z,20.2
2017-04-12T02:44:14.504Z,20.19
2017-04-12T02:44:46.773Z,20.2
2017-04-12T02:45:19.041Z,20.2
2017-04-12T02:45:51.295Z,20.2
2017-04-12T02:46:23.544Z,20.12
2017-04-12T02:46:55.802Z,20.26
2017-04-12T02:47:28.067Z,20.29
2017-04-12T02:48:00.312Z,20.32
2017-04-12T02:48:32.568Z,20.18
2017-04-12T02:49:04.819Z,20.18
2017-04-12T02:49:37.090Z,20.26
2017-04-12T02:50:10.134Z,20.27
2017-04-12T02:50:42.400Z,20.26
2017-04-12T02:51:14.656Z,20.18
2017-04-12T02:51:46.921Z,20.19
2017-04-12T02:52:19.186Z,20.16
2017-04-12T02:52:51.425Z,20.2
2017-04-12T02:53:23.668Z,20.25
2017-04-12T02:53:55.912Z,20.23
2017-04-12T02:54:28.708Z,20.2
2017-04-12T02:55:00.962Z,20.16
2017-04-12T02:55:33.218Z,20.15
2017-04-12T02:56:05.453Z,20.2
2017-04-12T02:56:37.695Z,20.16
2017-04-12T02:57:09.971Z,20.15
2017-04-12T02:57:42.216Z,20.2
2017-04-12T02:58:14.499Z,20.2
2017-04-12T02:58:46.840Z,20.19
2017-04-12T02:59:19.082Z,20.15
2017-04-12T02:59:51.338Z,20.18
2017-04-12T03:00:23.575Z,20.16
2017-04-12T03:00:55.855Z,20.26
2017-04-12T03:01:29.135Z,20.16
2017-04-12T03:02:01.396Z,20.18
2017-04-12T03:02:33.705Z,20.22
2017-04-12T03:03:06.009Z,20.22
2017-04-12T03:03:38.338Z,20.2
2017-04-12T03:04:10.647Z,20.15
2017-04-12T03:04:42.961Z,20.2
2017-04-12T03:05:15.259Z,20.23
2017-04-12T03:05:47.557Z,20.16
2017-04-12T03:06:19.877Z,20.26
2017-04-12T03:06:52.179Z,20.12
2017-04-12T03:07:24.478Z,20.22
2017-04-12T03:07:56.777Z,20.25
2017-04-12T03:08:29.130Z,20.12
2017-04-12T03:09:01.431Z,20.19
2017-04-12T03:09:33.743Z,20.12
2017-04-12T03:10:06.066Z,20.19
2017-04-12T03:10:38.380Z,20.29
2017-04-12T03:11:10.679Z,20.18
2017-04-12T03:11:42.979Z,20.18
2017-04-12T03:12:15.288Z,20.16
2017-04-12T03:12:47.532Z,20.15
2017-04-12T03:13:19.819Z,20.18
2017-04-12T03:13:52.079Z,20.18
2017-04-12T03:14:24.431Z,20.19
2017-04-12T03:14:56.669Z,20.12
2017-04-12T03:15:28.932Z,20.2
2017-04-12T03:16:01.169Z,20.15
2017-04-12T03:16:33.417Z,20.15
2017-04-12T03:17:05.654Z,20.16
2017-04-12T03:17:37.915Z,20.16
2017-04-12T03:18:11.067Z,20.19
2017-04-12T03:18:43.426Z,20.16
2017-04-12T03:19:15.676Z,20.12
2017-04-12T03:19:47.932Z,20.16
2017-04-12T03:20:20.210Z,20.16
2017-04-12T03:20:52.469Z,20.22
2017-04-12T03:21:24.714Z,20.19
2017-04-12T03:21:56.990Z,20.22
2017-04-12T03:22:29.238Z,20.15
2017-04-12T03:23:01.501Z,20.18
2017-04-12T03:23:33.744Z,20.18
2017-04-12T03:24:06.000Z,20.16
2017-04-12T03:24:38.249Z,20.12
2017-04-12T03:25:10.497Z,20.12
2017-04-12T03:25:42.857Z,20.12
2017-04-12T03:26:15.104Z,20.15
2017-04-12T03:26:47.352Z,20.2
2017-04-12T03:27:19.607Z,20.22
2017-04-12T03:27:52.492Z,20.18
2017-04-12T03:28:25.672Z,20.2
2017-04-12T03:28:57.977Z,20.2
2017-04-12T03:29:30.239Z,20.22
2017-04-12T03:30:03.164Z,20.15
2017-04-12T03:30:36.155Z,20.15
2017-04-12T03:31:08.404Z,20.16
2017-04-12T03:31:40.646Z,20.22
2017-04-12T03:32:12.980Z,20.19
2017-04-12T03:32:45.327Z,20.19
2017-04-12T03:33:17.623Z,20.23
2017-04-12T03:33:49.925Z,20.18
2017-04-12T03:34:22.241Z,20.19
2017-04-12T03:34:54.543Z,20.16
2017-04-12T03:35:26.840Z,20.19
2017-04-12T03:35:59.137Z,20.19
2017-04-12T03:36:31.449Z,20.19
2017-04-12T03:37:03.737Z,20.16
2017-04-12T03:37:36.048Z,20.15
2017-04-12T03:38:08.352Z,20.25
2017-04-12T03:38:40.649Z,20.26
2017-04-12T03:39:12.958Z,20.15
2017-04-12T03:39:45.258Z,20.16
2017-04-12T03:40:17.549Z,20.16
2017-04-12T03:40:49.860Z,20.27
2017-04-12T03:41:22.154Z,20.19
2017-04-12T03:41:54.457Z,20.16
2017-04-12T03:42:26.766Z,20.18
2017-04-12T03:42:59.081Z,20.16
2017-04-12T03:43:31.395Z,20.16
2017-04-12T03:44:03.707Z,20.2
2017-04-12T03:44:36.015Z,20.25
2017-04-12T03:45:08.324Z,20.15
2017-04-12T03:45:40.630Z,20.19
2017-04-12T03:46:12.926Z,20.2
2017-04-12T03:46:45.242Z,20.18
2017-04-12T03:47:17.541Z,20.12
2017-04-12T03:47:49.828Z,20.2
2017-04-12T03:48:22.143Z,20.18
2017-04-12T03:48:54.447Z,20.15
2017-04-12T03:49:26.746Z,20.1
2017-04-12T03:49:59.047Z,20.2
2017-04-12T03:50:31.347Z,20.16
2017-04-12T03:51:03.647Z,20.16
2017-04-12T03:51:35.935Z,20.2
2017-04-12T03:52:08.236Z,20.19
2017-04-12T03:52:40.491Z,20.11
2017-04-12T03:53:12.744Z,20.2
2017-04-12T03:53:44.982Z,20.15
2017-04-12T03:54:17.242Z,20.11
2017-04-12T03:54:49.589Z,20.08
2017-04-12T03:55:21.847Z,20.19
2017-04-12T03:55:54.097Z,20.2
2017-04-12T03:56:26.357Z,20.08
2017-04-12T03:56:58.627Z,20.15
2017-04-12T03:57:30.887Z,20.18
2017-04-12T03:58:03.230Z,20.12
2017-04-12T03:58:35.485Z,20.11
2017-04-12T03:59:07.741Z,20.08
2017-04-12T03:59:39.982Z,20.18
2017-04-12T04:00:12.703Z,20.18
2017-04-12T04:00:45.633Z,20.16
2017-04-12T04:01:17.894Z,20.12
2017-04-12T04:01:50.128Z,20.19
2017-04-12T04:02:22.370Z,20.15
2017-04-12T04:02:54.604Z,20.16
2017-04-12T04:03:26.834Z,20.15
2017-04-12T04:03:59.196Z,20.16
2017-04-12T04:04:31.502Z,20.2
2017-04-12T04:05:03.810Z,20.18
2017-04-12T04:05:36.072Z,20.2
2017-04-12T04:06:08.309Z,20.16
2017-04-12T04:06:40.552Z,20.19
2017-04-12T04:07:12.883Z,20.15
2017-04-12T04:07:45.155Z,20.05
2017-04-12T04:08:17.400Z,20.18
2017-04-12T04:08:49.655Z,20.1
2017-04-12T04:09:21.992Z,20.08
2017-04-12T04:09:54.285Z,20.15
2017-04-12T04:10:26.561Z,20.18
2017-04-12T04:10:58.834Z,20.12
2017-04-12T04:11:31.096Z,20.1
2017-04-12T04:12:03.380Z,20.19
2017-04-12T04:12:35.697Z,20.18
2017-04-12T04:13:08.004Z,20.11
2017-04-12T04:13:40.296Z,20.15
2017-04-12T04:14:12.604Z,20.12
2017-04-12T04:14:44.927Z,20.12
2017-04-12T04:15:17.226Z,20.11
2017-04-12T04:15:49.528Z,20.1
2017-04-12T04:16:21.827Z,20.18
2017-04-12T04:16:54.114Z,20.11
2017-04-12T04:17:26.425Z,20.1
2017-04-12T04:17:58.730Z,20.19
2017-04-12T04:18:31.029Z,20.2
2017-04-12T04:19:03.328Z,20.16
2017-04-12T04:19:35.626Z,20.12
2017-04-12T04:20:07.934Z,20.18
2017-04-12T04:20:40.230Z,20.07
2017-04-12T04:21:12.534Z,20.19
2017-04-12T04:21:44.841Z,20.11
2017-04-12T04:22:17.135Z,20.12
2017-04-12T04:22:49.396Z,20.15
2017-04-12T04:23:21.704Z,20.15
2017-04-12T04:23:53.974Z,20.22
2017-04-12T04:24:26.219Z,20.11
2017-04-12T04:24:58.452Z,20.15
2017-04-12T04:25:31.241Z,20.07
2017-04-12T04:26:03.471Z,20.18
2017-04-12T04:26:35.730Z,20.08
2017-04-12T04:27:07.982Z,20.19
2017-04-12T04:27:40.244Z,20.05
2017-04-12T04:28:12.509Z,20.22
2017-04-12T04:28:44.779Z,20.18
2017-04-12T04:29:17.599Z,20.08
2017-04-12T04:29:49.842Z,20.12
2017-04-12T04:30:22.095Z,20.16
2017-04-12T04:30:54.347Z,20.12
2017-04-12T04:31:26.622Z,20.08
2017-04-12T04:31:58.902Z,20.18
2017-04-12T04:32:31.198Z,20.16
2017-04-12T04:33:03.494Z,20.2
2017-04-12T04:33:35.796Z,20.08
2017-04-12T04:34:08.093Z,20.16
2017-04-12T04:34:40.398Z,20.1
2017-04-12T04:35:12.696Z,20.18
2017-04-12T04:35:44.994Z,20.05
2017-04-12T04:36:17.282Z,20.19
2017-04-12T04:36:49.588Z,20.22
2017-04-12T04:37:21.884Z,20.15
2017-04-12T04:37:54.196Z,20.18
2017-04-12T04:38:26.505Z,20.07
2017-04-12T04:38:58.800Z,20.19
2017-04-12T04:39:31.114Z,20.19
2017-04-12T04:40:03.423Z,20.18
2017-04-12T04:40:35.777Z,20.07
2017-04-12T04:41:08.078Z,20.11
2017-04-12T04:41:40.397Z,20.18
2017-04-12T04:42:12.708Z,20.11
2017-04-12T04:42:45.026Z,20.12
2017-04-12T04:43:17.328Z,20.11
2017-04-12T04:43:49.625Z,20.12
2017-04-12T04:44:21.938Z,20.05
2017-04-12T04:44:54.269Z,20.16
2017-04-12T04:45:26.572Z,20.2
2017-04-12T04:45:58.888Z,20.2
2017-04-12T04:46:31.212Z,20.2
2017-04-12T04:47:03.543Z,20.08
2017-04-12T04:47:35.858Z,20.11
2017-04-12T04:48:08.174Z,20.08
2017-04-12T04:48:40.472Z,20.16
2017-04-12T04:49:12.787Z,20.15
2017-04-12T04:49:45.094Z,20.16
2017-04-12T04:50:17.401Z,20.15
2017-04-12T04:50:49.693Z,20.12
2017-04-12T04:51:22.000Z,20.18
2017-04-12T04:51:54.295Z,20.18
2017-04-12T04:52:26.584Z,20.1
2017-04-12T04:52:58.888Z,20.1
2017-04-12T04:53:31.190Z,20.08
2017-04-12T04:54:03.489Z,20.16
2017-04-12T04:54:36.062Z,20.18
2017-04-12T04:55:08.361Z,20.15
2017-04-12T04:55:40.667Z,20.16
2017-04-12T04:56:12.957Z,20.15
2017-04-12T04:56:45.254Z,20.08
2017-04-12T04:57:17.551Z,20.18
2017-04-12T04:57:49.845Z,20.12
2017-04-12T04:58:22.165Z,20.18
2017-04-12T04:58:54.476Z,20.16
2017-04-12T04:59:26.781Z,20.11
2017-04-12T04:59:59.089Z,20.07
2017-04-12T05:00:31.409Z,20.22
2017-04-12T05:01:03.718Z,20.11
2017-04-12T05:01:36.018Z,20.12
2017-04-12T05:02:08.309Z,20.19
2017-04-12T05:02:40.605Z,20.19
2017-04-12T05:03:12.906Z,20.19
2017-04-12T05:03:45.207Z,20.18
2017-04-12T05:04:17.566Z,20.15
2017-04-12T05:04:50.231Z,20.18
2017-04-12T05:05:23.485Z,20.18
2017-04-12T05:05:55.960Z,20.19
2017-04-12T05:06:28.298Z,20.16
2017-04-12T05:07:00.600Z,20.23
2017-04-12T05:07:32.908Z,20.2
2017-04-12T05:08:05.194Z,20.15
2017-04-12T05:08:37.508Z,20.18
2017-04-12T05:09:09.807Z,20.15
2017-04-12T05:09:42.157Z,20.2
2017-04-12T05:11:33.713Z,20.15
2017-04-12T05:12:06.018Z,20.22
2017-04-12T05:12:38.260Z,20.26
2017-04-12T05:13:10.523Z,20.15
2017-04-12T05:13:42.791Z,20.19
2017-04-12T05:14:15.054Z,20.19
2017-04-12T05:14:47.307Z,20.19
2017-04-12T05:15:19.550Z,20.16
2017-04-12T05:15:53.243Z,20.23
2017-04-12T05:16:25.550Z,20.19
2017-04-12T05:16:57.823Z,20.18
2017-04-12T05:17:30.072Z,20.19
2017-04-12T05:18:02.344Z,20.19
2017-04-12T05:18:34.572Z,20.2
2017-04-12T05:19:06.841Z,20.2
2017-04-12T05:19:39.175Z,20.18
2017-04-12T05:20:11.426Z,20.22
2017-04-12T05:20:43.694Z,20.15
2017-04-12T05:21:15.966Z,20.12
2017-04-12T05:21:48.220Z,20.15
2017-04-12T05:22:20.451Z,20.15
2017-04-12T05:22:52.770Z,20.22
2017-04-12T05:23:25.075Z,20.19
2017-04-12T05:23:57.376Z,20.18
2017-04-12T05:24:29.677Z,20.26
2017-04-12T05:25:01.997Z,20.22
2017-04-12T05:25:34.310Z,20.29
2017-04-12T05:26:06.624Z,20.29
2017-04-12T05:26:38.939Z,20.29
2017-04-12T05:27:11.250Z,20.29
2017-04-12T05:27:43.552Z,20.18
2017-04-12T05:28:15.866Z,20.26
2017-04-12T05:28:48.226Z,20.18
2017-04-12T05:29:20.999Z,20.27
2017-04-12T05:29:53.808Z,20.23
2017-04-12T05:30:26.330Z,20.19
2017-04-12T05:30:59.722Z,20.23
2017-04-12T05:31:32.812Z,20.27
2017-04-12T05:32:05.922Z,20.23
2017-04-12T05:32:38.172Z,20.25
2017-04-12T05:33:11.637Z,20.26
2017-04-12T05:33:44.527Z,20.34
2017-04-12T05:34:17.436Z,20.25
2017-04-12T05:34:50.794Z,20.26
2017-04-12T05:35:23.068Z,20.25
2017-04-12T05:35:55.324Z,20.25
2017-04-12T05:36:28.195Z,20.29
2017-04-12T05:37:00.457Z,20.37
2017-04-12T05:37:32.724Z,20.32
2017-04-12T05:38:04.968Z,20.3
2017-04-12T05:38:38.139Z,20.41
2017-04-12T05:39:10.453Z,20.37
2017-04-12T05:39:42.727Z,20.41
2017-04-12T05:40:14.984Z,20.34
2017-04-12T05:40:47.251Z,20.38
2017-04-12T05:41:19.516Z,20.34
2017-04-12T05:41:51.757Z,20.35
2017-04-12T05:42:24.150Z,20.38
2017-04-12T05:42:56.457Z,20.38
2017-04-12T05:43:28.771Z,20.35
2017-04-12T05:44:01.085Z,20.41
2017-04-12T05:44:33.389Z,20.42
2017-04-12T05:45:05.691Z,20.37
2017-04-12T05:45:37.991Z,20.37
2017-04-12T05:46:10.293Z,20.44
2017-04-12T05:46:42.592Z,20.34
2017-04-12T05:47:14.889Z,20.32
2017-04-12T05:47:47.174Z,20.46
2017-04-12T05:48:19.484Z,20.41
2017-04-12T05:48:51.790Z,20.41
2017-04-12T05:49:24.088Z,20.53
2017-04-12T05:49:56.386Z,20.42
2017-04-12T05:50:28.696Z,20.44
2017-04-12T05:51:00.986Z,20.4
2017-04-12T05:51:33.300Z,20.44
2017-04-12T05:52:05.605Z,20.44
2017-04-12T05:52:37.922Z,20.42
2017-04-12T05:53:10.240Z,20.42
2017-04-12T05:53:42.542Z,20.46
2017-04-12T05:54:14.859Z,20.53
2017-04-12T05:54:47.155Z,20.54
2017-04-12T05:55:19.474Z,20.51
2017-04-12T05:55:51.760Z,20.51
2017-04-12T05:56:24.057Z,20.56
2017-04-12T05:56:56.360Z,20.49
2017-04-12T05:57:28.661Z,20.51
2017-04-12T05:58:00.954Z,20.49
2017-04-12T05:58:33.262Z,20.58
2017-04-12T05:59:05.558Z,20.54
2017-04-12T05:59:37.879Z,20.51
2017-04-12T06:00:10.181Z,20.57
2017-04-12T06:00:42.483Z,20.54
2017-04-12T06:01:14.785Z,20.58
2017-04-12T06:01:47.079Z,20.6
2017-04-12T06:02:19.372Z,20.57
2017-04-12T06:02:51.630Z,20.6
2017-04-12T06:03:23.888Z,20.58
2017-04-12T06:03:56.162Z,20.57
2017-04-12T06:04:28.405Z,20.63
2017-04-12T06:05:00.820Z,20.61
2017-04-12T06:05:33.077Z,20.66
2017-04-12T06:06:05.352Z,20.72
2017-04-12T06:06:38.153Z,20.68
2017-04-12T06:07:10.399Z,20.67
2017-04-12T06:07:42.648Z,20.76
2017-04-12T06:08:14.907Z,20.66
2017-04-12T06:08:47.153Z,20.67
2017-04-12T06:09:19.414Z,20.67
2017-04-12T06:09:51.666Z,20.66
2017-04-12T06:10:23.932Z,20.74
2017-04-12T06:10:57.650Z,20.72
2017-04-12T06:11:29.927Z,20.82
2017-04-12T06:12:02.165Z,20.76
2017-04-12T06:12:34.481Z,20.78
2017-04-12T06:13:06.811Z,20.82
2017-04-12T06:13:39.117Z,20.79
2017-04-12T06:14:11.442Z,20.82
2017-04-12T06:14:43.753Z,20.86
2017-04-12T06:15:16.070Z,20.9
2017-04-12T06:15:48.633Z,20.83
2017-04-12T06:16:20.926Z,20.82
2017-04-12T06:16:53.234Z,20.9
2017-04-12T06:17:25.550Z,20.83
2017-04-12T06:17:57.859Z,20.94
2017-04-12T06:18:30.372Z,20.9
2017-04-12T06:19:03.121Z,20.93
2017-04-12T06:19:35.876Z,20.93
2017-04-12T06:20:08.652Z,20.88
2017-04-12T06:20:41.281Z,20.93
2017-04-12T06:21:13.634Z,20.9
2017-04-12T06:21:45.956Z,20.9
2017-04-12T06:22:18.264Z,20.86
2017-04-12T06:22:50.586Z,21
2017-04-12T06:23:22.922Z,20.98
2017-04-12T06:23:55.241Z,20.97
2017-04-12T06:24:27.560Z,21
2017-04-12T06:24:59.878Z,20.91
2017-04-12T06:25:32.197Z,20.88
2017-04-12T06:26:04.502Z,20.98
2017-04-12T06:26:36.800Z,21.01
2017-04-12T06:27:09.100Z,21.04
2017-04-12T06:27:41.407Z,20.94
2017-04-12T06:28:13.726Z,21.03
2017-04-12T06:28:46.015Z,20.97
2017-04-12T06:29:18.327Z,20.97
2017-04-12T06:29:50.634Z,21
2017-04-12T06:30:22.942Z,21.08
2017-04-12T06:30:55.238Z,20.9
2017-04-12T06:31:27.537Z,21.01
2017-04-12T06:32:00.804Z,20.98
2017-04-12T06:32:33.071Z,21.01
2017-04-12T06:33:05.332Z,21.01
2017-04-12T06:33:37.582Z,21
2017-04-12T06:34:09.890Z,21.01
2017-04-12T06:34:42.142Z,21.03
2017-04-12T06:35:14.413Z,21.01
2017-04-12T06:35:46.671Z,21.04
2017-04-12T06:36:19.779Z,21.01
2017-04-12T06:36:52.050Z,21
2017-04-12T06:37:24.316Z,21.08
2017-04-12T06:37:56.566Z,21.06
2017-04-12T06:38:29.768Z,21.04
2017-04-12T06:39:02.084Z,21.06
2017-04-12T06:39:34.326Z,21.03
2017-04-12T06:40:06.588Z,21.15
2017-04-12T06:40:38.848Z,21.13
2017-04-12T06:41:11.107Z,21.11
2017-04-12T06:41:43.369Z,21.12
2017-04-12T06:42:15.630Z,21.15
2017-04-12T06:42:47.940Z,21.18
2017-04-12T06:43:20.229Z,21.21
2017-04-12T06:43:52.555Z,21.19
2017-04-12T06:44:24.868Z,21.19
2017-04-12T06:44:57.169Z,21.19
2017-04-12T06:45:29.469Z,21.22
2017-04-12T06:46:01.774Z,21.19
2017-04-12T06:46:34.085Z,21.31
2017-04-12T06:47:06.382Z,21.34
2017-04-12T06:47:38.689Z,21.23
2017-04-12T06:48:11.019Z,21.25
2017-04-12T06:48:43.315Z,21.3
2017-04-12T06:49:15.645Z,21.28
2017-04-12T06:49:47.948Z,21.3
2017-04-12T06:50:20.258Z,21.34
2017-04-12T06:50:52.558Z,21.3
2017-04-12T06:51:24.848Z,21.36
2017-04-12T06:51:57.166Z,21.37
2017-04-12T06:52:29.470Z,21.33
2017-04-12T06:53:01.771Z,21.4
2017-04-12T06:53:34.078Z,21.36
2017-04-12T06:54:06.379Z,21.38
2017-04-12T06:54:38.676Z,21.38
2017-04-12T06:55:10.981Z,21.46
2017-04-12T06:55:43.292Z,21.45
2017-04-12T06:56:15.641Z,21.41
2017-04-12T06:56:47.956Z,21.46
2017-04-12T06:57:20.256Z,21.49
2017-04-12T06:57:52.566Z,21.43
2017-04-12T06:58:24.867Z,21.48
2017-04-12T06:58:57.173Z,21.56
2017-04-12T06:59:29.505Z,21.53